Time;durP1;ratioP1;P1;durP2;ratioP2;P2;SDS_P1;SDS_P2;PMS_P1;PMS_P2;Temp;Humidity;BMP_temperature;BMP_pressure;BME280_temperature;BME280_humidity;BME280_pressure;Samples;Min_cycle;Max_cycle;Signal;HPM_P1;HPM_P2
2023/10/13 00:00:25;;;;;;;;;;;;;;;16.05;100.00;101100.94;5053263;28;1338;-74
2023/10/13 00:02:52;;;;;;;;;;;;;;;16.05;100.00;101103.53;5053813;28;1692;-74
2023/10/13 00:05:17;;;;;;;;;;;;;;;16.04;100.00;101107.16;5051044;28;1971;-74
2023/10/13 00:07:42;;;;;;;;;;;;;;;16.02;100.00;101098.63;5050293;28;1361;-75
2023/10/13 00:10:18;;;;;;;;;;;;;;;16.04;100.00;101104.53;5042615;28;1518;-75
2023/10/13 00:12:49;;;;;;;;;;;;;;;16.02;100.00;101096.84;5049205;28;1425;-75
2023/10/13 00:15:15;;;;;;;;;;;;;;;16.05;100.00;101095.69;5047765;28;1577;-74
2023/10/13 00:17:41;;;;;;;;;;;;;;;16.05;100.00;101095.69;5066169;28;1267;-73
2023/10/13 00:20:27;;;;;;;;;;;;;;;16.04;100.00;101078.38;5050071;28;1184;-75
2023/10/13 00:22:52;;;;;;;;;;;;;;;16.04;100.00;101086.22;5047521;28;1315;-74
2023/10/13 00:25:26;;;;;;;;;;;;;;;16.03;100.00;101072.31;5046181;28;1983;-75
2023/10/13 00:27:52;;;;;;;;;;;;;;;16.03;100.00;101066.25;5046478;28;1392;-75
2023/10/13 00:30:21;;;;;;;;;;;;;;;16.03;100.00;101068.88;5046312;28;1289;-74
2023/10/13 00:32:52;;;;;;;;;;;;;;;16.03;100.00;101076.72;5037533;28;1306;-77
2023/10/13 00:35:35;;;;;;;;;;;;;;;16.03;100.00;101076.72;5045743;28;1239;-78
2023/10/13 00:38:12;;;;;;;;;;;;;;;16.02;100.00;101069.84;5049815;28;1288;-78
2023/10/13 00:45:55;;;;;;;;;;;;;;;16.04;100.00;101054.81;5044793;28;1906;-74
2023/10/13 00:48:33;;;;;;;;;;;;;;;16.01;100.00;101057.75;5051099;28;1517;-74
2023/10/13 00:51:02;;;;;;;;;;;;;;;16.00;100.00;101048.25;5047384;28;1109;-76
2023/10/13 00:53:28;;;;;;;;;;;;;;;16.00;100.00;101051.72;5062019;28;1200;-74
2023/10/13 00:55:57;;;;;;;;;;;;;;;16.00;100.00;101056.09;5049424;28;1444;-74
2023/10/13 00:58:23;;;;;;;;;;;;;;;16.01;100.00;101042.06;5048877;28;1308;-74
2023/10/13 01:00:56;;;;;;;;;;;;;;;16.01;100.00;101042.88;5050633;28;1264;-74
2023/10/13 01:03:25;;;;;;;;;;;;;;;16.01;100.00;101042.88;5050258;28;1110;-74
2023/10/13 01:05:54;;;;;;;;;;;;;;;16.01;100.00;101042.06;5051584;28;1901;-75
2023/10/13 01:08:20;;;;;;;;;;;;;;;16.02;100.00;101038.47;5051076;28;1195;-74
2023/10/13 01:10:45;;;;;;;;;;;;;;;16.02;100.00;101033.22;5051453;28;1271;-75
2023/10/13 01:13:11;;;;;;;;;;;;;;;16.01;100.00;101031.59;5043424;28;1240;-76
2023/10/13 01:15:36;;;;;;;;;;;;;;;16.02;100.00;101020.97;5050557;28;1019;-74
2023/10/13 01:18:12;;;;;;;;;;;;;;;16.01;100.00;101015.91;5047133;28;1306;-75
2023/10/13 01:20:43;;;;;;;;;;;;;;;16.01;100.00;101018.50;5048511;28;1395;-77
2023/10/13 01:23:18;;;;;;;;;;;;;;;16.00;100.00;101014.22;5047682;28;1291;-74
2023/10/13 01:25:43;;;;;;;;;;;;;;;16.01;100.00;101010.66;5060680;28;1918;-77
2023/10/13 01:28:09;;;;;;;;;;;;;;;16.00;100.00;101003.75;5045117;28;1287;-77
2023/10/13 01:30:34;;;;;;;;;;;;;;;15.99;100.00;101008.19;5053250;28;1294;-78
2023/10/13 01:33:03;;;;;;;;;;;;;;;15.99;100.00;101007.38;5049226;28;1429;-77
2023/10/13 01:35:36;;;;;;;;;;;;;;;15.98;100.00;101003.13;5047025;28;1225;-77
2023/10/13 01:38:01;;;;;;;;;;;;;;;15.97;100.00;100994.44;5041599;28;1211;-77
2023/10/13 01:40:28;;;;;;;;;;;;;;;15.97;100.00;100993.63;5045706;28;1255;-78
2023/10/13 01:42:55;;;;;;;;;;;;;;;15.95;100.00;100988.56;5050251;28;1404;-77
2023/10/13 01:45:20;;;;;;;;;;;;;;;15.93;100.00;100988.69;5046950;28;1938;-77
2023/10/13 01:47:45;;;;;;;;;;;;;;;15.93;100.00;100991.31;5049061;28;1338;-77
2023/10/13 01:50:32;;;;;;;;;;;;;;;15.91;100.00;100995.88;5049665;28;1253;-77
2023/10/13 01:53:12;;;;;;;;;;;;;;;15.91;100.00;100989.84;5052409;28;1183;-78
2023/10/13 01:55:43;;;;;;;;;;;;;;;15.91;100.00;100980.19;5047435;28;1725;-78
2023/10/13 01:58:22;;;;;;;;;;;;;;;15.91;100.00;100980.19;5056930;28;1660;-78
2023/10/13 02:00:48;;;;;;;;;;;;;;;15.90;100.00;100970.72;5054012;28;1374;-78
2023/10/13 02:03:16;;;;;;;;;;;;;;;15.89;100.00;100970.88;5058306;28;1259;-78
2023/10/13 02:05:48;;;;;;;;;;;;;;;15.89;100.00;100965.66;5072551;28;1985;-77
2023/10/13 02:08:22;;;;;;;;;;;;;;;15.88;100.00;100963.97;5053129;28;1634;-77
2023/10/13 02:10:48;;;;;;;;;;;;;;;15.87;100.00;100963.16;5053817;28;1363;-77
2023/10/13 02:13:17;;;;;;;;;;;;;;;15.87;100.00;100962.34;5052590;28;1489;-77
2023/10/13 02:15:47;;;;;;;;;;;;;;;15.87;100.00;100952.69;5053710;28;1525;-78
2023/10/13 02:18:26;;;;;;;;;;;;;;;15.86;100.00;100945.84;5045898;28;1195;-77
2023/10/13 02:20:55;;;;;;;;;;;;;;;15.87;100.00;100939.63;5048895;28;1225;-78
2023/10/13 02:23:30;;;;;;;;;;;;;;;15.85;100.00;100933.75;5048156;28;1288;-78
2023/10/13 02:26:03;;;;;;;;;;;;;;;15.85;100.00;100936.34;5046403;28;1922;-78
2023/10/13 02:28:33;;;;;;;;;;;;;;;15.84;100.00;100926.88;5050761;28;1009;-78
2023/10/13 02:31:03;;;;;;;;;;;;;;;15.84;100.00;100926.88;5046517;28;1476;-78
2023/10/13 02:33:31;;;;;;;;;;;;;;;15.85;100.00;100918.06;5045868;28;1208;-78
2023/10/13 02:35:58;;;;;;;;;;;;;;;15.85;100.00;100923.28;5045683;28;1208;-78
2023/10/13 02:39:07;;;;;;;;;;;;;;;15.85;100.00;100922.47;5061137;28;1601;-77
2023/10/13 02:41:18;;;;;;;;;;;;;;;15.83;100.00;100908.72;5046327;28;1608;-77
2023/10/13 02:43:44;;;;;;;;;;;;;;;15.83;100.00;100904.31;5051583;28;1871;-74
2023/10/13 02:46:09;;;;;;;;;;;;;;;15.83;100.00;100909.56;5047270;28;1251;-76
2023/10/13 02:48:41;;;;;;;;;;;;;;;15.83;100.00;100893.84;5047722;28;1494;-74
2023/10/13 02:51:16;;;;;;;;;;;;;;;15.82;100.00;100894.00;5048698;28;1578;-73
2023/10/13 02:53:42;;;;;;;;;;;;;;;15.81;100.00;100890.56;5045089;28;1189;-74
2023/10/13 02:56:07;;;;;;;;;;;;;;;15.80;100.00;100888.94;5054370;28;1258;-75
2023/10/13 02:58:39;;;;;;;;;;;;;;;15.79;100.00;100887.28;5047093;28;1736;-75
2023/10/13 03:01:16;;;;;;;;;;;;;;;15.79;100.00;100876.00;5051546;28;1292;-75
2023/10/13 03:03:50;;;;;;;;;;;;;;;15.79;100.00;100863.75;5047528;28;1402;-75
2023/10/13 03:06:16;;;;;;;;;;;;;;;15.78;100.00;100864.75;5049943;28;1133;-74
2023/10/13 03:08:43;;;;;;;;;;;;;;;15.75;100.00;100849.34;5049561;28;1541;-76
2023/10/13 03:11:09;;;;;;;;;;;;;;;15.79;100.00;100847.25;5054346;28;1319;-74
2023/10/13 03:13:35;;;;;;;;;;;;;;;15.77;100.00;100842.19;5045554;28;1507;-77
2023/10/13 03:16:00;;;;;;;;;;;;;;;15.78;100.00;100827.31;5047913;28;1435;-77
2023/10/13 03:18:26;;;;;;;;;;;;;;;15.77;100.00;100836.97;5069688;28;1211;-77
2023/10/13 03:20:59;;;;;;;;;;;;;;;15.77;100.00;100831.72;5053708;28;1230;-77
2023/10/13 03:23:24;;;;;;;;;;;;;;;15.76;100.00;100827.44;5048696;28;1259;-77
2023/10/13 03:25:49;;;;;;;;;;;;;;;15.75;100.00;100823.19;5046078;28;1955;-78
2023/10/13 03:28:17;;;;;;;;;;;;;;;15.76;100.00;100824.84;5047273;28;1306;-77
2023/10/13 03:30:42;;;;;;;;;;;;;;;15.75;100.00;100823.19;5070384;28;1316;-77
2023/10/13 03:33:13;;;;;;;;;;;;;;;15.75;100.00;100812.75;5045360;28;1282;-78
2023/10/13 03:35:41;;;;;;;;;;;;;;;15.76;100.00;100809.13;5051444;28;1264;-78
2023/10/13 03:38:19;;;;;;;;;;;;;;;15.75;100.00;100797.06;5047804;28;1264;-77
2023/10/13 03:43:45;;;;;;;;;;;;;;;15.76;100.00;100790.03;5049829;28;1321;-77
2023/10/13 03:46:10;;;;;;;;;;;;;;;15.77;100.00;100799.50;5047388;28;1230;-78
2023/10/13 03:48:55;;;;;;;;;;;;;;;15.76;100.00;100785.59;5045865;28;1559;-77
2023/10/13 03:51:21;;;;;;;;;;;;;;;15.76;100.00;100782.19;5050005;28;1530;-77
2023/10/13 03:53:52;;;;;;;;;;;;;;;15.76;100.00;100771.72;5056442;28;1566;-78
2023/10/13 03:56:26;;;;;;;;;;;;;;;15.75;100.00;100760.44;5052402;28;1344;-78
2023/10/13 03:58:53;;;;;;;;;;;;;;;15.74;100.00;100743.13;5054801;28;1388;-78
2023/10/13 04:01:24;;;;;;;;;;;;;;;15.75;100.00;100764.84;5048036;28;1258;-74
2023/10/13 04:04:03;;;;;;;;;;;;;;;15.75;100.00;100742.13;5054430;28;1894;-78
2023/10/13 04:06:54;;;;;;;;;;;;;;;15.76;100.00;100735.09;5050246;28;1322;-77
2023/10/13 04:17:23;;;;;;;;;;;;;;;15.80;100.00;100711.09;5047099;28;1212;-77
2023/10/13 04:28:15;;;;;;;;;;;;;;;15.83;100.00;100683.81;5047026;28;1320;-74
2023/10/13 04:33:35;;;;;;;;;;;;;;;15.84;100.00;100669.75;5045286;28;1187;-73
2023/10/13 04:36:05;;;;;;;;;;;;;;;15.85;100.00;100660.91;5048940;28;1507;-74
2023/10/13 04:38:55;;;;;;;;;;;;;;;15.87;100.00;100659.75;5047914;28;1390;-74
2023/10/13 04:41:23;;;;;;;;;;;;;;;15.89;100.00;100651.78;5047085;28;1766;-75
2023/10/13 04:43:55;;;;;;;;;;;;;;;15.92;100.00;100649.63;5069959;28;1906;-74
2023/10/13 04:46:39;;;;;;;;;;;;;;;15.95;100.00;100645.88;5050771;28;1208;-74
2023/10/13 04:49:09;;;;;;;;;;;;;;;15.99;100.00;100651.59;5049455;28;1246;-75
2023/10/13 04:51:58;;;;;;;;;;;;;;;16.03;100.00;100647.66;5051174;28;1258;-75
2023/10/13 04:54:33;;;;;;;;;;;;;;;16.06;100.00;100648.16;5053996;28;926;-74
2023/10/13 06:29:31;;;;;;;;;;;;;;;16.67;100.00;100564.72;5046633;28;1047;-74
2023/10/13 06:31:57;;;;;;;;;;;;;;;16.66;100.00;100561.28;5048333;28;1371;-77
2023/10/13 06:34:37;;;;;;;;;;;;;;;16.67;100.00;100568.13;5052168;28;1067;-76
2023/10/13 06:37:02;;;;;;;;;;;;;;;16.68;100.00;100563.72;5045523;28;1365;-75
2023/10/13 06:39:37;;;;;;;;;;;;;;;16.69;100.00;100565.38;5051229;28;1379;-74
2023/10/13 06:42:02;;;;;;;;;;;;;;;16.70;100.00;100551.28;5047564;28;1217;-74
2023/10/13 06:44:32;;;;;;;;;;;;;;;16.71;100.00;100552.94;5052430;28;1968;-75
2023/10/13 06:46:57;;;;;;;;;;;;;;;16.72;100.00;100550.16;5065161;28;1186;-75
2023/10/13 06:49:23;;;;;;;;;;;;;;;16.72;100.00;100544.09;5046544;28;1182;-74
2023/10/13 06:51:48;;;;;;;;;;;;;;;16.73;100.00;100545.72;5049875;28;1290;-74
2023/10/13 06:54:20;;;;;;;;;;;;;;;16.73;100.00;100540.47;5050084;28;1355;-75
2023/10/13 06:56:45;;;;;;;;;;;;;;;16.72;100.00;100533.63;5052020;28;1064;-75
2023/10/13 06:59:14;;;;;;;;;;;;;;;16.73;100.00;100535.25;5050797;28;1092;-75
2023/10/13 07:01:40;;;;;;;;;;;;;;;16.72;100.00;100523.16;5042602;28;1159;-75
2023/10/13 07:04:15;;;;;;;;;;;;;;;16.70;100.00;100525.09;5055100;28;1898;-75
2023/10/13 07:06:50;;;;;;;;;;;;;;;16.71;100.00;100532.00;5046700;28;1491;-75
2023/10/13 07:12:01;;;;;;;;;;;;;;;16.69;100.00;100526.09;5046091;28;1275;-74
2023/10/13 07:14:26;;;;;;;;;;;;;;;16.68;100.00;100517.41;5040304;28;1391;-75
2023/10/13 07:16:58;;;;;;;;;;;;;;;16.69;100.00;100515.63;5054374;28;1183;-74
2023/10/13 07:19:24;;;;;;;;;;;;;;;16.70;100.00;100509.38;5049229;28;1212;-74
2023/10/13 07:21:58;;;;;;;;;;;;;;;16.70;100.00;100510.22;5048219;28;1273;-75
2023/10/13 07:24:24;;;;;;;;;;;;;;;16.71;100.00;100495.34;5048323;28;1893;-75
2023/10/13 07:26:57;;;;;;;;;;;;;;;16.72;100.00;100496.97;5045929;28;1537;-75
2023/10/13 07:29:24;;;;;;;;;;;;;;;16.73;100.00;100488.09;5050502;28;1822;-75
2023/10/13 07:31:50;;;;;;;;;;;;;;;16.74;100.00;100484.50;5047212;28;1195;-74
2023/10/13 07:34:26;;;;;;;;;;;;;;;16.75;100.00;100480.91;5047935;28;1211;-75
2023/10/13 07:37:00;;;;;;;;;;;;;;;16.76;100.00;100493.00;5044366;28;989;-75
2023/10/13 07:39:33;;;;;;;;;;;;;;;16.77;100.00;100484.16;5047369;28;1150;-74
2023/10/13 07:42:05;;;;;;;;;;;;;;;16.79;100.00;100481.38;5057102;28;1523;-75
2023/10/13 07:44:33;;;;;;;;;;;;;;;16.81;100.00;100474.16;5052508;28;1894;-74
2023/10/13 07:46:59;;;;;;;;;;;;;;;16.82;100.00;100476.59;5054102;28;1166;-74
2023/10/13 07:49:43;;;;;;;;;;;;;;;16.83;100.00;100473.00;5048928;28;1290;-74
2023/10/13 07:54:55;;;;;;;;;;;;;;;16.88;100.00;100469.84;5049939;28;1113;-76
2023/10/13 07:57:29;;;;;;;;;;;;;;;16.90;100.00;100484.38;5052550;28;1106;-75
2023/10/13 08:00:06;;;;;;;;;;;;;;;16.93;100.00;100470.97;5049045;28;963;-75
2023/10/13 08:02:49;;;;;;;;;;;;;;;16.95;100.00;100468.97;5047447;28;1236;-74
2023/10/13 08:05:24;;;;;;;;;;;;;;;16.97;100.00;100464.38;5049949;28;1898;-75
2023/10/13 08:07:50;;;;;;;;;;;;;;;16.99;100.00;100462.41;5044950;28;1320;-74
2023/10/13 08:10:25;;;;;;;;;;;;;;;17.01;100.00;100464.03;5050952;28;1184;-74
2023/10/13 08:12:54;;;;;;;;;;;;;;;17.06;100.00;100456.44;5047956;28;1341;-74
2023/10/13 08:15:31;;;;;;;;;;;;;;;17.09;100.00;100461.31;5051474;28;1491;-74
2023/10/13 08:17:59;;;;;;;;;;;;;;;17.14;100.00;100466.84;5053575;28;1130;-75
2023/10/13 08:20:26;;;;;;;;;;;;;;;17.17;100.00;100453.41;5045280;28;1611;-74
2023/10/13 08:23:09;;;;;;;;;;;;;;;17.23;100.00;100464.00;5046661;28;1210;-75
2023/10/13 08:26:29;;;;;;;;;;;;;;;17.29;100.00;100457.22;5048665;28;1897;-75
2023/10/13 08:31:22;;;;;;;;;;;;;;;17.40;100.00;100454.19;5033270;28;1433;-77
2023/10/13 08:33:47;;;;;;;;;;;;;;;17.44;100.00;100439.72;5045610;28;1116;-75
2023/10/13 08:36:28;;;;;;;;;;;;;;;17.52;100.00;100441.44;5049089;28;1532;-74
2023/10/13 08:38:55;;;;;;;;;;;;;;;17.58;100.00;100439.91;5046718;28;1183;-74
2023/10/13 08:43:53;;;;;;;;;;;;;;;17.66;100.00;100442.44;5047291;28;1143;-76
2023/10/13 08:46:27;;;;;;;;;;;;;;;17.68;100.00;100443.91;5044637;28;1989;-76
2023/10/13 08:49:06;;;;;;;;;;;;;;;17.73;100.00;100432.91;5044311;28;1438;-75
2023/10/13 08:51:43;;;;;;;;;;;;;;;17.76;100.00;100414.97;5059635;28;1402;-74
2023/10/13 08:54:19;;;;;;;;;;;;;;;17.80;100.00;100425.09;5044547;28;1003;-74
2023/10/13 08:56:54;;;;;;;;;;;;;;;17.81;100.00;100403.94;5050291;28;1333;-74
2023/10/13 08:59:22;;;;;;;;;;;;;;;17.87;100.00;100424.19;5051493;28;1123;-75
2023/10/13 09:01:48;;;;;;;;;;;;;;;17.89;100.00;100427.47;5053616;28;1220;-74
2023/10/13 09:04:26;;;;;;;;;;;;;;;17.90;100.00;100418.59;5067519;28;1971;-76
2023/10/13 09:09:34;;;;;;;;;;;;;;;18.00;100.00;100424.34;5045796;28;1239;-74
2023/10/13 09:12:25;;;;;;;;;;;;;;;18.03;100.00;100417.94;5044971;28;1451;-76
2023/10/13 09:15:04;;;;;;;;;;;;;;;18.07;100.00;100405.28;5050096;28;1412;-74
2023/10/13 09:19:58;;;;;;;;;;;;;;;18.11;100.00;100414.38;5052482;28;1443;-75
2023/10/13 09:22:35;;;;;;;;;;;;;;;18.10;100.00;100407.50;5052833;28;1161;-75
2023/10/13 09:25:00;;;;;;;;;;;;;;;18.15;100.00;100403.34;5045121;28;1981;-75
2023/10/13 09:27:27;;;;;;;;;;;;;;;18.13;100.00;100401.91;5054724;28;1158;-74
2023/10/13 09:29:56;;;;;;;;;;;;;;;18.15;100.00;100405.16;5044519;28;1537;-74
2023/10/13 09:32:21;;;;;;;;;;;;;;;18.15;100.00;100399.91;5051086;28;1258;-74
2023/10/13 09:34:48;;;;;;;;;;;;;;;18.16;100.00;100399.72;5045778;28;1186;-75
2023/10/13 09:37:20;;;;;;;;;;;;;;;18.19;100.00;100395.91;5045123;28;1085;-74
2023/10/13 09:39:48;;;;;;;;;;;;;;;18.23;100.00;100395.34;5049665;28;1434;-75
2023/10/13 09:42:15;;;;;;;;;;;;;;;18.25;100.00;100392.53;5045644;28;1587;-75
2023/10/13 09:44:40;;;;;;;;;;;;;;;18.30;100.00;100392.81;5048278;28;1925;-75
2023/10/13 09:47:16;;;;;;;;;;;;;;;18.33;100.00;100396.84;5050228;28;1055;-77
2023/10/13 09:49:49;;;;;;;;;;;;;;;18.34;100.00;100387.97;5050973;28;1263;-75
2023/10/13 09:52:19;;;;;;;;;;;;;;;18.36;100.00;100397.31;5052753;28;1172;-76
2023/10/13 09:55:11;;;;;;;;;;;;;;;18.38;100.00;100390.06;5051567;28;1239;-77
2023/10/13 09:57:44;;;;;;;;;;;;;;;18.42;100.00;100391.31;5056419;28;1022;-75
2023/10/13 10:03:15;;;;;;;;;;;;;;;18.47;100.00;100372.38;5053471;28;1498;-74
2023/10/13 10:05:59;;;;;;;;;;;;;;;18.48;100.00;100366.13;5048928;28;1961;-74
2023/10/13 10:08:34;;;;;;;;;;;;;;;18.49;100.00;100373.00;5056199;28;1294;-74
2023/10/13 10:11:07;;;;;;;;;;;;;;;18.53;100.00;100372.44;5052036;28;1219;-74
2023/10/13 10:13:34;;;;;;;;;;;;;;;18.56;100.00;100365.97;5052388;28;1243;-74
2023/10/13 10:16:03;;;;;;;;;;;;;;;18.58;100.00;100349.03;5051123;28;1518;-75
2023/10/13 10:18:28;;;;;;;;;;;;;;;18.64;100.00;100357.16;5055023;28;1238;-74
2023/10/13 10:21:07;;;;;;;;;;;;;;;18.63;100.00;100355.53;5058565;28;1294;-75
2023/10/13 10:23:36;;;;;;;;;;;;;;;18.63;100.00;100348.44;5049930;28;981;-75
2023/10/13 10:26:13;;;;;;;;;;;;;;;18.61;100.00;100349.66;5052819;28;1918;-75
2023/10/13 10:28:41;;;;;;;;;;;;;;;18.62;100.00;100353.91;5051284;28;1240;-75
2023/10/13 10:31:09;;;;;;;;;;;;;;;18.62;100.00;100343.41;5054080;28;1331;-75
2023/10/13 10:33:34;;;;;;;;;;;;;;;18.62;100.00;100346.84;5067689;28;1339;-76
2023/10/13 10:36:00;;;;;;;;;;;;;;;18.64;100.00;100338.75;5059093;28;1308;-75
2023/10/13 10:41:00;;;;;;;;;;;;;;;18.68;100.00;100353.19;5053237;28;1285;-74
2023/10/13 10:43:41;;;;;;;;;;;;;;;18.71;100.00;100331.81;5053934;28;1243;-74
2023/10/13 10:46:07;;;;;;;;;;;;;;;18.71;100.00;100331.81;5049694;28;1886;-73
2023/10/13 10:48:34;;;;;;;;;;;;;;;18.74;100.00;100326.16;5051062;28;1236;-74
2023/10/13 10:51:06;;;;;;;;;;;;;;;18.76;100.00;100311.03;5053105;28;1218;-76
2023/10/13 10:53:33;;;;;;;;;;;;;;;18.80;100.00;100312.25;5048933;28;1255;-76
2023/10/13 10:56:05;;;;;;;;;;;;;;;18.85;100.00;100323.00;5061604;28;1362;-76
2023/10/13 10:58:43;;;;;;;;;;;;;;;18.87;100.00;100310.50;5039634;28;1286;-74
2023/10/13 11:01:10;;;;;;;;;;;;;;;18.95;100.00;100291.13;5048979;28;1171;-74
2023/10/13 11:03:37;;;;;;;;;;;;;;;18.99;100.00;100298.44;5054996;28;1259;-74
2023/10/13 11:06:03;;;;;;;;;;;;;;;19.03;100.00;100312.00;5054121;28;1894;-74
2023/10/13 11:08:31;;;;;;;;;;;;;;;19.08;99.40;100306.97;5049534;28;1286;-75
2023/10/13 11:10:57;;;;;;;;;;;;;;;19.07;100.00;100311.44;5065080;28;1555;-75
2023/10/13 11:13:22;;;;;;;;;;;;;;;19.13;97.89;100288.00;5056429;28;1250;-75
2023/10/13 11:15:48;;;;;;;;;;;;;;;19.15;97.22;100278.09;5043571;28;2344;-75
2023/10/13 11:18:20;;;;;;;;;;;;;;;19.16;96.22;100288.44;5051883;28;1253;-76
2023/10/13 11:20:46;;;;;;;;;;;;;;;19.15;95.51;100275.47;5054030;28;1460;-75
2023/10/13 11:23:12;;;;;;;;;;;;;;;19.23;93.75;100286.66;5052206;28;1262;-74
2023/10/13 11:25:37;;;;;;;;;;;;;;;19.16;92.83;100274.47;5055275;28;1906;-75
2023/10/13 11:28:20;;;;;;;;;;;;;;;19.18;93.11;100260.13;5046913;28;1234;-74
2023/10/13 11:30:49;;;;;;;;;;;;;;;19.22;93.55;100266.63;5049756;28;1058;-76
2023/10/13 11:33:18;;;;;;;;;;;;;;;19.16;93.48;100277.13;5049326;28;1246;-75
2023/10/13 11:38:27;;;;;;;;;;;;;;;19.17;94.00;100270.84;5046067;28;1212;-74
2023/10/13 11:41:08;;;;;;;;;;;;;;;19.15;94.02;100270.22;5050522;28;1372;-75
2023/10/13 11:48:36;;;;;;;;;;;;;;;19.15;93.71;100243.91;5046660;28;1065;-74
2023/10/13 11:51:06;;;;;;;;;;;;;;;19.17;94.07;100244.56;5049076;28;1159;-76
2023/10/13 11:53:32;;;;;;;;;;;;;;;19.20;94.14;100241.50;5046979;28;2103;-75
2023/10/13 11:55:57;;;;;;;;;;;;;;;19.23;93.98;100241.13;5045970;28;1200;-75
2023/10/13 11:58:23;;;;;;;;;;;;;;;19.30;93.46;100248.03;5044216;28;1235;-75
2023/10/13 12:00:53;;;;;;;;;;;;;;;19.33;94.67;100252.13;5062930;28;1353;-76
2023/10/13 12:08:49;;;;;;;;;;;;;;;19.54;94.51;100228.28;5043258;28;1231;-75
2023/10/13 12:11:30;;;;;;;;;;;;;;;19.56;93.54;100226.28;5051674;28;1359;-76
2023/10/13 12:13:56;;;;;;;;;;;;;;;19.60;93.67;100238.06;5050212;28;1055;-75
2023/10/13 12:16:21;;;;;;;;;;;;;;;19.65;93.32;100228.75;5050567;28;1180;-75
2023/10/13 12:18:53;;;;;;;;;;;;;;;19.67;92.99;100227.56;5047640;28;1079;-76
2023/10/13 12:21:19;;;;;;;;;;;;;;;19.75;92.17;100240.53;5057918;28;1272;-75
2023/10/13 12:23:45;;;;;;;;;;;;;;;19.76;91.20;100230.81;5048315;28;1326;-75
2023/10/13 12:26:19;;;;;;;;;;;;;;;19.80;90.34;100239.94;5048715;28;1960;-75
2023/10/13 12:28:51;;;;;;;;;;;;;;;19.83;89.62;100221.09;5044721;28;1072;-77
2023/10/13 12:31:17;;;;;;;;;;;;;;;19.82;88.99;100227.38;5042952;28;1192;-76
2023/10/13 12:33:42;;;;;;;;;;;;;;;19.83;88.60;100236.88;5045510;28;1147;-78
2023/10/13 12:49:59;;;;;;;;;;;;;;;19.83;88.12;100205.31;5041704;28;1299;-77
2023/10/13 12:52:20;;;;;;;;;;;;;;;19.83;87.27;100211.38;5048730;28;1532;-78
2023/10/13 12:54:58;;;;;;;;;;;;;;;19.87;87.22;100211.81;5043070;28;1125;-78
2023/10/13 12:57:27;;;;;;;;;;;;;;;19.93;86.67;100226.78;5047330;28;1207;-78
2023/10/13 12:59:53;;;;;;;;;;;;;;;19.97;86.28;100211.41;5044050;28;1096;-78
2023/10/13 13:02:20;;;;;;;;;;;;;;;20.05;84.47;100219.91;5049469;28;1548;-79
2023/10/13 13:04:48;;;;;;;;;;;;;;;20.07;85.24;100212.63;5049307;28;1961;-78
2023/10/13 13:07:13;;;;;;;;;;;;;;;20.05;85.16;100203.31;5048797;28;1553;-78
2023/10/13 13:09:39;;;;;;;;;;;;;;;20.05;84.30;100208.56;5048901;28;1064;-78
2023/10/13 13:12:06;;;;;;;;;;;;;;;20.02;85.67;100204.53;5044375;28;1261;-76
2023/10/13 13:14:34;;;;;;;;;;;;;;;20.01;85.27;100202.88;5039754;28;1235;-75
2023/10/13 13:17:05;;;;;;;;;;;;;;;19.99;85.17;100194.41;5047887;28;1224;-74
2023/10/13 13:19:36;;;;;;;;;;;;;;;20.16;83.05;100192.97;5051446;28;1404;-74
2023/10/13 13:22:02;;;;;;;;;;;;;;;20.05;83.96;100209.38;5049796;28;1212;-74
2023/10/13 13:24:29;;;;;;;;;;;;;;;20.02;84.17;100199.28;5050076;28;1977;-75
2023/10/13 13:26:55;;;;;;;;;;;;;;;20.03;83.82;100192.97;5045759;28;1514;-74
2023/10/13 13:29:20;;;;;;;;;;;;;;;20.08;82.96;100201.09;5049760;28;1142;-75
2023/10/13 13:31:46;;;;;;;;;;;;;;;20.07;83.05;100183.69;5045509;28;1442;-75
2023/10/13 13:34:12;;;;;;;;;;;;;;;20.07;83.42;100180.22;5047697;28;1109;-74
2023/10/13 13:36:38;;;;;;;;;;;;;;;20.07;82.26;100191.56;5047067;28;1032;-75
2023/10/13 13:39:04;;;;;;;;;;;;;;;20.06;82.31;100189.94;5041617;28;1332;-75
2023/10/13 13:41:32;;;;;;;;;;;;;;;20.07;81.59;100186.31;5058834;28;1223;-75
2023/10/13 13:44:01;;;;;;;;;;;;;;;20.08;81.22;100190.56;5048729;28;1121;-74
2023/10/13 13:46:41;;;;;;;;;;;;;;;20.04;82.12;100181.44;5058194;28;1913;-75
2023/10/13 13:49:07;;;;;;;;;;;;;;;20.05;82.08;100188.31;5047023;28;1067;-76
2023/10/13 13:51:33;;;;;;;;;;;;;;;20.03;82.26;100181.66;5054820;28;1077;-74
2023/10/13 13:53:59;;;;;;;;;;;;;;;20.02;82.30;100180.84;5054346;28;1474;-75
2023/10/13 13:56:28;;;;;;;;;;;;;;;20.15;80.15;100183.47;5050056;28;1332;-75
2023/10/13 13:58:54;;;;;;;;;;;;;;;20.06;81.77;100183.84;5050747;28;1187;-76
2023/10/13 14:01:26;;;;;;;;;;;;;;;20.01;82.26;100171.31;5045761;28;1182;-74
2023/10/13 14:03:52;;;;;;;;;;;;;;;20.01;82.22;100170.50;5063054;28;1392;-75
2023/10/13 14:06:21;;;;;;;;;;;;;;;19.98;83.20;100174.34;5056183;28;1993;-75
2023/10/13 14:08:48;;;;;;;;;;;;;;;19.98;83.07;100176.19;5048708;28;1146;-75
2023/10/13 14:11:20;;;;;;;;;;;;;;;19.97;82.51;100175.38;5045527;28;1088;-75
2023/10/13 14:13:49;;;;;;;;;;;;;;;19.95;82.74;100182.63;5045608;28;1250;-76
2023/10/13 14:16:18;;;;;;;;;;;;;;;19.97;82.37;100180.63;5036224;28;1273;-75
2023/10/13 14:18:46;;;;;;;;;;;;;;;19.94;82.29;100186.28;5046666;28;990;-76
2023/10/13 14:21:16;;;;;;;;;;;;;;;19.87;83.59;100185.47;5055083;28;1287;-75
2023/10/13 14:23:42;;;;;;;;;;;;;;;19.91;82.54;100181.44;5043799;28;1236;-75
2023/10/13 14:26:09;;;;;;;;;;;;;;;19.90;82.81;100187.72;5046929;28;1890;-75
2023/10/13 14:28:34;;;;;;;;;;;;;;;19.84;83.88;100191.97;5049099;28;1200;-75
2023/10/13 14:31:09;;;;;;;;;;;;;;;19.82;83.85;100193.16;5044430;28;1060;-76
2023/10/13 14:33:36;;;;;;;;;;;;;;;19.80;83.73;100201.28;5044108;28;1519;-76
2023/10/13 14:36:04;;;;;;;;;;;;;;;19.85;82.91;100203.31;5050166;28;1257;-75
2023/10/13 14:38:29;;;;;;;;;;;;;;;19.80;83.56;100211.00;5046623;28;1155;-76
2023/10/13 14:40:57;;;;;;;;;;;;;;;19.71;84.61;100206.91;5047204;28;1211;-76
2023/10/13 14:43:22;;;;;;;;;;;;;;;19.68;84.84;100207.31;5050653;28;1144;-74
2023/10/13 14:45:47;;;;;;;;;;;;;;;19.67;84.76;100208.31;5049285;28;1980;-75
2023/10/13 14:48:12;;;;;;;;;;;;;;;19.68;84.14;100207.31;5069925;28;1274;-76
2023/10/13 14:50:42;;;;;;;;;;;;;;;19.63;85.24;100198.19;5050692;28;1224;-75
2023/10/13 14:53:07;;;;;;;;;;;;;;;19.61;85.33;100194.97;5054058;28;1131;-76
2023/10/13 14:55:39;;;;;;;;;;;;;;;19.58;85.79;100205.88;5052186;28;1056;-75
2023/10/13 14:58:04;;;;;;;;;;;;;;;19.56;86.14;100189.47;5048986;28;1219;-77
2023/10/13 15:00:31;;;;;;;;;;;;;;;19.56;85.61;100189.47;5052226;28;989;-75
2023/10/13 15:02:56;;;;;;;;;;;;;;;19.53;86.29;100194.31;5051204;28;1233;-75
2023/10/13 15:05:22;;;;;;;;;;;;;;;19.50;85.75;100182.38;5052837;28;1996;-78
2023/10/13 15:07:47;;;;;;;;;;;;;;;19.52;85.73;100198.75;5049470;28;1299;-78
2023/10/13 15:10:14;;;;;;;;;;;;;;;19.52;85.98;100214.53;5046071;28;1623;-77
2023/10/13 15:12:40;;;;;;;;;;;;;;;19.53;85.50;100210.88;5047255;28;1084;-78
2023/10/13 15:15:13;;;;;;;;;;;;;;;19.52;85.76;100206.66;5050570;28;1043;-78
2023/10/13 15:17:39;;;;;;;;;;;;;;;19.46;86.49;100188.22;5068716;28;1389;-77
2023/10/13 15:20:08;;;;;;;;;;;;;;;19.40;87.00;100195.09;5063304;28;1383;-78
2023/10/13 15:22:34;;;;;;;;;;;;;;;19.36;87.16;100193.84;5061567;28;1259;-78
2023/10/13 15:25:09;;;;;;;;;;;;;;;19.29;87.88;100188.56;5045509;28;1894;-78
2023/10/13 15:27:41;;;;;;;;;;;;;;;19.25;87.93;100186.53;5045459;28;1139;-77
2023/10/13 15:30:19;;;;;;;;;;;;;;;19.20;88.51;100194.19;5045189;28;962;-78
2023/10/13 15:32:45;;;;;;;;;;;;;;;19.14;88.54;100189.72;5046933;28;914;-78
2023/10/13 15:35:12;;;;;;;;;;;;;;;19.09;89.35;100188.50;5044055;28;1076;-78
2023/10/13 15:37:37;;;;;;;;;;;;;;;19.05;89.53;100176.75;5047443;28;1142;-79
2023/10/13 15:40:04;;;;;;;;;;;;;;;19.02;89.88;100156.13;5051242;28;1147;-78
2023/10/13 15:42:29;;;;;;;;;;;;;;;18.98;90.36;100144.41;5052860;28;1246;-77